Osage River (Missouri), Saint Thomas (06926510)

StateMissouriLatestUnknown (1980 cfs)
RiverOsage RiverRatingObservedEstimated
Updated2020-07-13 19:45 (39 minutes ago)Flood - The river is flooding. Obstacles can be treacherous or deadly. The river should be avoided at this stage for casual trips and definitely for the inexperienced. Trips should be attempted only with protective gear and equipment.Flood(none)(none)
Discharge1980 cfs (median: 6600 cfs)High - The river is high and potentially dangerous, especially for the young and / or inexperienced. Normal stream obstacles are sometimes difficult to navigate. Extended distances can be attempted, but canoe travel may not be advisable.High(none)(none)
Height2.87 feetGood - Conditions are ideal for a canoe or kayak. Boats typically will drag on fewer than one-quarter of riffles, if at all, and portages are unnecessary or rare. Normal float lengths can be attempted without a problem.Good(none)(none)
TrendFalling (rising over 24 hours)Low - River is low but can still be floated. Some riffles are okay but most come with significant dragging and might need a portage. Float lengths should be reduced to accommodate low flow, dragging, and portages.Low(none)(none)
USGSExternal icon USGS Site (External icon Google Maps)Poor - River is too low to float comfortably. Most or all riffles will drag or must be portaged and some obstacles (such as slick shelf rock) cause undue problems. Avoid the river at this stage for casual paddling trips.Poor(none)(none)

Trending Data

Plot Image

Trips for Osage River (Missouri), Saint Thomas (06926510)

DateStartEndDistanceConditionDischargeHeightFishingDetails

A total of 0 rows are displayed.

Condition Descriptions

Fishing Conditions

Fish Species

Notes

Classic Trip List

The classic River Trips application is still available for use. It is updated with the new system using a data retrofit. It is no longer maintained. The original River Trips application is no longer updated (as of 1 Dec 2016) but can be checked for errors or for the condition of the data before it was converted to the new system.

Gauge Data Table

ObservationHeightDischargeMaximum
Discharge
Minimum
Discharge
Mean
Discharge
P05P10P20P25P50
(Median)
P75P80P90P95
2020-07-13 19:45 2.87 1980 51000 (2008) 1190 (2012) 17300 1230 1530 1950 2130 6600 31500 41700 50700 51000
2020-07-13 18:45 2.88 2000 51000 (2008) 1190 (2012) 17300 1230 1530 1950 2130 6600 31500 41700 50700 51000
2020-07-13 17:45 2.89 2010 51000 (2008) 1190 (2012) 17300 1230 1530 1950 2130 6600 31500 41700 50700 51000
2020-07-13 16:45 2.91 2050 51000 (2008) 1190 (2012) 17300 1230 1530 1950 2130 6600 31500 41700 50700 51000
2020-07-13 15:45 2.92 2070 51000 (2008) 1190 (2012) 17300 1230 1530 1950 2130 6600 31500 41700 50700 51000
2020-07-13 14:45 2.93 2090 51000 (2008) 1190 (2012) 17300 1230 1530 1950 2130 6600 31500 41700 50700 51000
2020-07-13 13:45 2.93 2090 51000 (2008) 1190 (2012) 17300 1230 1530 1950 2130 6600 31500 41700 50700 51000
2020-07-13 12:45 2.93 2090 51000 (2008) 1190 (2012) 17300 1230 1530 1950 2130 6600 31500 41700 50700 51000
2020-07-13 11:45 2.92 2070 51000 (2008) 1190 (2012) 17300 1230 1530 1950 2130 6600 31500 41700 50700 51000
2020-07-13 10:45 2.92 2070 51000 (2008) 1190 (2012) 17300 1230 1530 1950 2130 6600 31500 41700 50700 51000
2020-07-13 09:45 2.91 2050 51000 (2008) 1190 (2012) 17300 1230 1530 1950 2130 6600 31500 41700 50700 51000
2020-07-13 08:45 2.89 2010 51000 (2008) 1190 (2012) 17300 1230 1530 1950 2130 6600 31500 41700 50700 51000
2020-07-13 07:45 2.88 2000 51000 (2008) 1190 (2012) 17300 1230 1530 1950 2130 6600 31500 41700 50700 51000
2020-07-13 06:45 2.86 1960 51000 (2008) 1190 (2012) 17300 1230 1530 1950 2130 6600 31500 41700 50700 51000
2020-07-13 05:45 2.84 1930 51000 (2008) 1190 (2012) 17300 1230 1530 1950 2130 6600 31500 41700 50700 51000
2020-07-13 04:45 2.84 1930 51000 (2008) 1190 (2012) 17300 1230 1530 1950 2130 6600 31500 41700 50700 51000
2020-07-13 03:45 2.83 1910 51000 (2008) 1190 (2012) 17300 1230 1530 1950 2130 6600 31500 41700 50700 51000
2020-07-13 02:45 2.82 1890 51000 (2008) 1190 (2012) 17300 1230 1530 1950 2130 6600 31500 41700 50700 51000
2020-07-13 01:45 2.82 1890 51000 (2008) 1190 (2012) 17300 1230 1530 1950 2130 6600 31500 41700 50700 51000
2020-07-13 00:45 2.81 1880 51000 (2008) 1190 (2012) 17300 1230 1530 1950 2130 6600 31500 41700 50700 51000
2020-07-12 23:45 2.81 1880 50700 (2007) 1160 (2018) 16700 1170 1300 2620 3590 6120 27500 41900 50500 50700
2020-07-12 22:45 2.81 1880 50700 (2007) 1160 (2018) 16700 1170 1300 2620 3590 6120 27500 41900 50500 50700
2020-07-12 21:45 2.81 1880 50700 (2007) 1160 (2018) 16700 1170 1300 2620 3590 6120 27500 41900 50500 50700
2020-07-12 20:45 2.82 1890 50700 (2007) 1160 (2018) 16700 1170 1300 2620 3590 6120 27500 41900 50500 50700
2020-07-12 19:45 2.82 1890 50700 (2007) 1160 (2018) 16700 1170 1300 2620 3590 6120 27500 41900 50500 50700
2020-07-12 18:45 2.82 1890 50700 (2007) 1160 (2018) 16700 1170 1300 2620 3590 6120 27500 41900 50500 50700
2020-07-12 17:45 2.82 1890 50700 (2007) 1160 (2018) 16700 1170 1300 2620 3590 6120 27500 41900 50500 50700
2020-07-12 16:45 2.82 1890 50700 (2007) 1160 (2018) 16700 1170 1300 2620 3590 6120 27500 41900 50500 50700
2020-07-12 15:45 2.81 1880 50700 (2007) 1160 (2018) 16700 1170 1300 2620 3590 6120 27500 41900 50500 50700
2020-07-12 14:45 2.82 1890 50700 (2007) 1160 (2018) 16700 1170 1300 2620 3590 6120 27500 41900 50500 50700
2020-07-12 13:45 2.81 1880 50700 (2007) 1160 (2018) 16700 1170 1300 2620 3590 6120 27500 41900 50500 50700
2020-07-12 12:45 2.81 1880 50700 (2007) 1160 (2018) 16700 1170 1300 2620 3590 6120 27500 41900 50500 50700
2020-07-12 11:45 2.81 1880 50700 (2007) 1160 (2018) 16700 1170 1300 2620 3590 6120 27500 41900 50500 50700
2020-07-12 10:45 2.83 1910 50700 (2007) 1160 (2018) 16700 1170 1300 2620 3590 6120 27500 41900 50500 50700
2020-07-12 09:45 2.84 1930 50700 (2007) 1160 (2018) 16700 1170 1300 2620 3590 6120 27500 41900 50500 50700
2020-07-12 08:45 2.84 1930 50700 (2007) 1160 (2018) 16700 1170 1300 2620 3590 6120 27500 41900 50500 50700
2020-07-12 07:45 2.86 1960 50700 (2007) 1160 (2018) 16700 1170 1300 2620 3590 6120 27500 41900 50500 50700
2020-07-12 06:45 2.86 1960 50700 (2007) 1160 (2018) 16700 1170 1300 2620 3590 6120 27500 41900 50500 50700
2020-07-12 05:45 2.87 1980 50700 (2007) 1160 (2018) 16700 1170 1300 2620 3590 6120 27500 41900 50500 50700
2020-07-12 04:45 2.89 2010 50700 (2007) 1160 (2018) 16700 1170 1300 2620 3590 6120 27500 41900 50500 50700
2020-07-12 03:45 2.90 2030 50700 (2007) 1160 (2018) 16700 1170 1300 2620 3590 6120 27500 41900 50500 50700
2020-07-12 02:45 2.92 2070 50700 (2007) 1160 (2018) 16700 1170 1300 2620 3590 6120 27500 41900 50500 50700
2020-07-12 01:45 2.94 2110 50700 (2007) 1160 (2018) 16700 1170 1300 2620 3590 6120 27500 41900 50500 50700
2020-07-12 00:45 2.96 2140 50700 (2007) 1160 (2018) 16700 1170 1300 2620 3590 6120 27500 41900 50500 50700
2020-07-11 23:45 2.98 2180 50600 (2008) 641 (2006) 17600 747 1400 1770 3100 12500 31900 38800 50400 50600
2020-07-11 22:45 2.99 2200 50600 (2008) 641 (2006) 17600 747 1400 1770 3100 12500 31900 38800 50400 50600
2020-07-11 21:45 3.01 2240 50600 (2008) 641 (2006) 17600 747 1400 1770 3100 12500 31900 38800 50400 50600
2020-07-11 20:45 3.03 2280 50600 (2008) 641 (2006) 17600 747 1400 1770 3100 12500 31900 38800 50400 50600
2020-07-11 19:45 3.05 2320 50600 (2008) 641 (2006) 17600 747 1400 1770 3100 12500 31900 38800 50400 50600
2020-07-11 18:45 3.07 2360 50600 (2008) 641 (2006) 17600 747 1400 1770 3100 12500 31900 38800 50400 50600
2020-07-11 17:45 3.08 2380 50600 (2008) 641 (2006) 17600 747 1400 1770 3100 12500 31900 38800 50400 50600
2020-07-11 16:45 3.10 2420 50600 (2008) 641 (2006) 17600 747 1400 1770 3100 12500 31900 38800 50400 50600
2020-07-11 15:45 3.11 2440 50600 (2008) 641 (2006) 17600 747 1400 1770 3100 12500 31900 38800 50400 50600
2020-07-11 14:45 3.13 2480 50600 (2008) 641 (2006) 17600 747 1400 1770 3100 12500 31900 38800 50400 50600
2020-07-11 13:45 3.15 2520 50600 (2008) 641 (2006) 17600 747 1400 1770 3100 12500 31900 38800 50400 50600
2020-07-11 12:45 3.17 2570 50600 (2008) 641 (2006) 17600 747 1400 1770 3100 12500 31900 38800 50400 50600
2020-07-11 11:45 3.19 2610 50600 (2008) 641 (2006) 17600 747 1400 1770 3100 12500 31900 38800 50400 50600
2020-07-11 10:45 3.23 2700 50600 (2008) 641 (2006) 17600 747 1400 1770 3100 12500 31900 38800 50400 50600
2020-07-11 09:45 3.26 2760 50600 (2008) 641 (2006) 17600 747 1400 1770 3100 12500 31900 38800 50400 50600
2020-07-11 08:45 3.31 2880 50600 (2008) 641 (2006) 17600 747 1400 1770 3100 12500 31900 38800 50400 50600
2020-07-11 07:45 3.36 3000 50600 (2008) 641 (2006) 17600 747 1400 1770 3100 12500 31900 38800 50400 50600
2020-07-11 06:45 3.42 3150 50600 (2008) 641 (2006) 17600 747 1400 1770 3100 12500 31900 38800 50400 50600
2020-07-11 05:45 3.49 3330 50600 (2008) 641 (2006) 17600 747 1400 1770 3100 12500 31900 38800 50400 50600
2020-07-11 04:45 3.57 3540 50600 (2008) 641 (2006) 17600 747 1400 1770 3100 12500 31900 38800 50400 50600
2020-07-11 03:45 3.66 3750 50600 (2008) 641 (2006) 17600 747 1400 1770 3100 12500 31900 38800 50400 50600
2020-07-11 02:45 3.75 3980 50600 (2008) 641 (2006) 17600 747 1400 1770 3100 12500 31900 38800 50400 50600
2020-07-11 01:45 3.85 4230 50600 (2008) 641 (2006) 17600 747 1400 1770 3100 12500 31900 38800 50400 50600
2020-07-11 00:45 3.97 4530 50600 (2008) 641 (2006) 17600 747 1400 1770 3100 12500 31900 38800 50400 50600
2020-07-10 23:45 4.10 4870 52400 (2008) 478 (2006) 17700 571 1180 1720 3560 11600 35500 42300 50600 52200
2020-07-10 22:45 4.23 5200 52400 (2008) 478 (2006) 17700 571 1180 1720 3560 11600 35500 42300 50600 52200
2020-07-10 21:45 4.38 5590 52400 (2008) 478 (2006) 17700 571 1180 1720 3560 11600 35500 42300 50600 52200
2020-07-10 20:45 4.54 6020 52400 (2008) 478 (2006) 17700 571 1180 1720 3560 11600 35500 42300 50600 52200
2020-07-10 19:45 4.71 6460 52400 (2008) 478 (2006) 17700 571 1180 1720 3560 11600 35500 42300 50600 52200
2020-07-10 18:45 4.88 6910 52400 (2008) 478 (2006) 17700 571 1180 1720 3560 11600 35500 42300 50600 52200
2020-07-10 17:45 5.06 7380 52400 (2008) 478 (2006) 17700 571 1180 1720 3560 11600 35500 42300 50600 52200
2020-07-10 16:45 5.23 7830 52400 (2008) 478 (2006) 17700 571 1180 1720 3560 11600 35500 42300 50600 52200
2020-07-10 15:45 5.43 8390 52400 (2008) 478 (2006) 17700 571 1180 1720 3560 11600 35500 42300 50600 52200
2020-07-10 14:45 5.61 8880 52400 (2008) 478 (2006) 17700 571 1180 1720 3560 11600 35500 42300 50600 52200
2020-07-10 13:45 5.77 9320 52400 (2008) 478 (2006) 17700 571 1180 1720 3560 11600 35500 42300 50600 52200
2020-07-10 12:45 5.92 9720 52400 (2008) 478 (2006) 17700 571 1180 1720 3560 11600 35500 42300 50600 52200
2020-07-10 11:45 6.05 10100 52400 (2008) 478 (2006) 17700 571 1180 1720 3560 11600 35500 42300 50600 52200
2020-07-10 10:45 6.13 10300 52400 (2008) 478 (2006) 17700 571 1180 1720 3560 11600 35500 42300 50600 52200
2020-07-10 09:45 6.16 10400 52400 (2008) 478 (2006) 17700 571 1180 1720 3560 11600 35500 42300 50600 52200
2020-07-10 08:45 6.12 10300 52400 (2008) 478 (2006) 17700 571 1180 1720 3560 11600 35500 42300 50600 52200
2020-07-10 07:45 5.99 9910 52400 (2008) 478 (2006) 17700 571 1180 1720 3560 11600 35500 42300 50600 52200
2020-07-10 06:45 5.75 9260 52400 (2008) 478 (2006) 17700 571 1180 1720 3560 11600 35500 42300 50600 52200
2020-07-10 05:45 5.37 8220 52400 (2008) 478 (2006) 17700 571 1180 1720 3560 11600 35500 42300 50600 52200
2020-07-10 04:45 4.87 6890 52400 (2008) 478 (2006) 17700 571 1180 1720 3560 11600 35500 42300 50600 52200
2020-07-10 03:45 4.41 5670 52400 (2008) 478 (2006) 17700 571 1180 1720 3560 11600 35500 42300 50600 52200
2020-07-10 02:45 4.18 5070 52400 (2008) 478 (2006) 17700 571 1180 1720 3560 11600 35500 42300 50600 52200
2020-07-10 01:45 4.22 5180 52400 (2008) 478 (2006) 17700 571 1180 1720 3560 11600 35500 42300 50600 52200
2020-07-10 00:45 4.35 5510 52400 (2008) 478 (2006) 17700 571 1180 1720 3560 11600 35500 42300 50600 52200
2020-07-09 23:45 4.49 5890 51900 (2008) 467 (2006) 19000 562 1200 3380 6130 10800 33500 44800 50700 51800
2020-07-09 22:45 4.66 6330 51900 (2008) 467 (2006) 19000 562 1200 3380 6130 10800 33500 44800 50700 51800
2020-07-09 21:45 4.82 6760 51900 (2008) 467 (2006) 19000 562 1200 3380 6130 10800 33500 44800 50700 51800
2020-07-09 20:45 4.99 7190 51900 (2008) 467 (2006) 19000 562 1200 3380 6130 10800 33500 44800 50700 51800
2020-07-09 19:45 5.18 7700 51900 (2008) 467 (2006) 19000 562 1200 3380 6130 10800 33500 44800 50700 51800
2020-07-09 18:45 5.36 8200 51900 (2008) 467 (2006) 19000 562 1200 3380 6130 10800 33500 44800 50700 51800
2020-07-09 17:45 5.54 8690 51900 (2008) 467 (2006) 19000 562 1200 3380 6130 10800 33500 44800 50700 51800
2020-07-09 16:45 5.72 9180 51900 (2008) 467 (2006) 19000 562 1200 3380 6130 10800 33500 44800 50700 51800
2020-07-09 15:45 5.90 9670 51900 (2008) 467 (2006) 19000 562 1200 3380 6130 10800 33500 44800 50700 51800
2020-07-09 14:45 6.05 10100 51900 (2008) 467 (2006) 19000 562 1200 3380 6130 10800 33500 44800 50700 51800
2020-07-09 13:45 6.19 10500 51900 (2008) 467 (2006) 19000 562 1200 3380 6130 10800 33500 44800 50700 51800
2020-07-09 12:45 6.30 10800 51900 (2008) 467 (2006) 19000 562 1200 3380 6130 10800 33500 44800 50700 51800
2020-07-09 11:45 6.37 11000 51900 (2008) 467 (2006) 19000 562 1200 3380 6130 10800 33500 44800 50700 51800
2020-07-09 10:45 6.39 11000 51900 (2008) 467 (2006) 19000 562 1200 3380 6130 10800 33500 44800 50700 51800
2020-07-09 09:45 6.36 11000 51900 (2008) 467 (2006) 19000 562 1200 3380 6130 10800 33500 44800 50700 51800
2020-07-09 08:45 6.22 10600 51900 (2008) 467 (2006) 19000 562 1200 3380 6130 10800 33500 44800 50700 51800
2020-07-09 07:45 5.97 9860 51900 (2008) 467 (2006) 19000 562 1200 3380 6130 10800 33500 44800 50700 51800
2020-07-09 06:45 5.57 8770 51900 (2008) 467 (2006) 19000 562 1200 3380 6130 10800 33500 44800 50700 51800
2020-07-09 05:45 4.97 7140 51900 (2008) 467 (2006) 19000 562 1200 3380 6130 10800 33500 44800 50700 51800
2020-07-09 04:45 4.25 5250 51900 (2008) 467 (2006) 19000 562 1200 3380 6130 10800 33500 44800 50700 51800
2020-07-09 03:45 3.74 3950 51900 (2008) 467 (2006) 19000 562 1200 3380 6130 10800 33500 44800 50700 51800
2020-07-09 02:45 3.65 3730 51900 (2008) 467 (2006) 19000 562 1200 3380 6130 10800 33500 44800 50700 51800
2020-07-09 01:45 3.71 3880 51900 (2008) 467 (2006) 19000 562 1200 3380 6130 10800 33500 44800 50700 51800
2020-07-09 00:45 3.80 4110 51900 (2008) 467 (2006) 19000 562 1200 3380 6130 10800 33500 44800 50700 51800
2020-07-08 23:45 3.90 4350 55900 (2015) 476 (2006) 18900 565 1080 2430 3350 14200 32600 42000 50700 55200
2020-07-08 22:45 4.01 4630 55900 (2015) 476 (2006) 18900 565 1080 2430 3350 14200 32600 42000 50700 55200
2020-07-08 21:45 4.14 4970 55900 (2015) 476 (2006) 18900 565 1080 2430 3350 14200 32600 42000 50700 55200
2020-07-08 20:45 4.28 5330 55900 (2015) 476 (2006) 18900 565 1080 2430 3350 14200 32600 42000 50700 55200
2020-07-08 19:45 4.43 5720 55900 (2015) 476 (2006) 18900 565 1080 2430 3350 14200 32600 42000 50700 55200
2020-07-08 18:45 4.59 6140 55900 (2015) 476 (2006) 18900 565 1080 2430 3350 14200 32600 42000 50700 55200
2020-07-08 17:45 4.76 6600 55900 (2015) 476 (2006) 18900 565 1080 2430 3350 14200 32600 42000 50700 55200
2020-07-08 16:45 4.95 7090 55900 (2015) 476 (2006) 18900 565 1080 2430 3350 14200 32600 42000 50700 55200
2020-07-08 15:45 5.14 7590 55900 (2015) 476 (2006) 18900 565 1080 2430 3350 14200 32600 42000 50700 55200
2020-07-08 14:45 5.33 8110 55900 (2015) 476 (2006) 18900 565 1080 2430 3350 14200 32600 42000 50700 55200
2020-07-08 13:45 5.53 8670 55900 (2015) 476 (2006) 18900 565 1080 2430 3350 14200 32600 42000 50700 55200
2020-07-08 12:45 5.72 9180 55900 (2015) 476 (2006) 18900 565 1080 2430 3350 14200 32600 42000 50700 55200
2020-07-08 11:45 5.91 9700 55900 (2015) 476 (2006) 18900 565 1080 2430 3350 14200 32600 42000 50700 55200
2020-07-08 10:45 6.10 10200 55900 (2015) 476 (2006) 18900 565 1080 2430 3350 14200 32600 42000 50700 55200
2020-07-08 09:45 6.29 10800 55900 (2015) 476 (2006) 18900 565 1080 2430 3350 14200 32600 42000 50700 55200
2020-07-08 08:45 6.43 11200 55900 (2015) 476 (2006) 18900 565 1080 2430 3350 14200 32600 42000 50700 55200
2020-07-08 07:45 6.56 11500 55900 (2015) 476 (2006) 18900 565 1080 2430 3350 14200 32600 42000 50700 55200
2020-07-08 06:45 6.66 11800 55900 (2015) 476 (2006) 18900 565 1080 2430 3350 14200 32600 42000 50700 55200
2020-07-08 05:45 6.72 12000 55900 (2015) 476 (2006) 18900 565 1080 2430 3350 14200 32600 42000 50700 55200
2020-07-08 04:45 6.73 12000 55900 (2015) 476 (2006) 18900 565 1080 2430 3350 14200 32600 42000 50700 55200
2020-07-08 03:45 6.68 11900 55900 (2015) 476 (2006) 18900 565 1080 2430 3350 14200 32600 42000 50700 55200
2020-07-08 02:45 6.53 11500 55900 (2015) 476 (2006) 18900 565 1080 2430 3350 14200 32600 42000 50700 55200
2020-07-08 01:45 6.30 10800 55900 (2015) 476 (2006) 18900 565 1080 2430 3350 14200 32600 42000 50700 55200
2020-07-08 00:45 5.97 9860 55900 (2015) 476 (2006) 18900 565 1080 2430 3350 14200 32600 42000 50700 55200
2020-07-07 23:45 5.67 9040 51500 (2015) 523 (2006) 18400 616 1220 2130 2890 11700 31200 36500 50500 51400
2020-07-07 22:45 5.51 8610 51500 (2015) 523 (2006) 18400 616 1220 2130 2890 11700 31200 36500 50500 51400
2020-07-07 21:45 5.59 8830 51500 (2015) 523 (2006) 18400 616 1220 2130 2890 11700 31200 36500 50500 51400
2020-07-07 20:45 5.79 9370 51500 (2015) 523 (2006) 18400 616 1220 2130 2890 11700 31200 36500 50500 51400
2020-07-07 19:45 6.05 10100 51500 (2015) 523 (2006) 18400 616 1220 2130 2890 11700 31200 36500 50500 51400
2020-07-07 18:45 6.31 10800 51500 (2015) 523 (2006) 18400 616 1220 2130 2890 11700 31200 36500 50500 51400
2020-07-07 17:45 6.60 11700 51500 (2015) 523 (2006) 18400 616 1220 2130 2890 11700 31200 36500 50500 51400
2020-07-07 16:45 6.88 12500 51500 (2015) 523 (2006) 18400 616 1220 2130 2890 11700 31200 36500 50500 51400
2020-07-07 15:45 7.16 13400 51500 (2015) 523 (2006) 18400 616 1220 2130 2890 11700 31200 36500 50500 51400
2020-07-07 14:45 7.45 14300 51500 (2015) 523 (2006) 18400 616 1220 2130 2890 11700 31200 36500 50500 51400
2020-07-07 13:45 7.73 15200 51500 (2015) 523 (2006) 18400 616 1220 2130 2890 11700 31200 36500 50500 51400
2020-07-07 12:45 8.03 16200 51500 (2015) 523 (2006) 18400 616 1220 2130 2890 11700 31200 36500 50500 51400
2020-07-07 11:45 8.30 17200 51500 (2015) 523 (2006) 18400 616 1220 2130 2890 11700 31200 36500 50500 51400
2020-07-07 10:45 8.54 18000 51500 (2015) 523 (2006) 18400 616 1220 2130 2890 11700 31200 36500 50500 51400
2020-07-07 09:45 8.76 18800 51500 (2015) 523 (2006) 18400 616 1220 2130 2890 11700 31200 36500 50500 51400
2020-07-07 08:45 8.96 19600 51500 (2015) 523 (2006) 18400 616 1220 2130 2890 11700 31200 36500 50500 51400
2020-07-07 07:45 9.10 20200 51500 (2015) 523 (2006) 18400 616 1220 2130 2890 11700 31200 36500 50500 51400
2020-07-07 06:45 9.18 20500 51500 (2015) 523 (2006) 18400 616 1220 2130 2890 11700 31200 36500 50500 51400
2020-07-07 05:45 9.10 20200 51500 (2015) 523 (2006) 18400 616 1220 2130 2890 11700 31200 36500 50500 51400
2020-07-07 04:45 8.90 19400 51500 (2015) 523 (2006) 18400 616 1220 2130 2890 11700 31200 36500 50500 51400
2020-07-07 03:45 8.48 17800 51500 (2015) 523 (2006) 18400 616 1220 2130 2890 11700 31200 36500 50500 51400
2020-07-07 02:45 7.83 15500 51500 (2015) 523 (2006) 18400 616 1220 2130 2890 11700 31200 36500 50500 51400
2020-07-07 01:45 6.98 12800 51500 (2015) 523 (2006) 18400 616 1220 2130 2890 11700 31200 36500 50500 51400
2020-07-07 00:45 6.01 9970 51500 (2015) 523 (2006) 18400 616 1220 2130 2890 11700 31200 36500 50500 51400
2020-07-06 23:45 4.82 6760 51000 (2015) 533 (2006) 17400 650 1340 1830 2010 8750 31900 36400 48800 50700
2020-07-06 22:45 3.62 3650 51000 (2015) 533 (2006) 17400 650 1340 1830 2010 8750 31900 36400 48800 50700
2020-07-06 21:45 3.06 2340 51000 (2015) 533 (2006) 17400 650 1340 1830 2010 8750 31900 36400 48800 50700
2020-07-06 20:45 2.98 2180 51000 (2015) 533 (2006) 17400 650 1340 1830 2010 8750 31900 36400 48800 50700
2020-07-06 19:45 2.98 2180 51000 (2015) 533 (2006) 17400 650 1340 1830 2010 8750 31900 36400 48800 50700
2020-07-06 18:45 2.98 2180 51000 (2015) 533 (2006) 17400 650 1340 1830 2010 8750 31900 36400 48800 50700
2020-07-06 17:45 3.00 2220 51000 (2015) 533 (2006) 17400 650 1340 1830 2010 8750 31900 36400 48800 50700
2020-07-06 16:45 3.00 2220 51000 (2015) 533 (2006) 17400 650 1340 1830 2010 8750 31900 36400 48800 50700
2020-07-06 15:45 3.01 2240 51000 (2015) 533 (2006) 17400 650 1340 1830 2010 8750 31900 36400 48800 50700
2020-07-06 14:45 3.02 2260 51000 (2015) 533 (2006) 17400 650 1340 1830 2010 8750 31900 36400 48800 50700
2020-07-06 13:45 3.02 2260 51000 (2015) 533 (2006) 17400 650 1340 1830 2010 8750 31900 36400 48800 50700
2020-07-06 12:45 3.03 2280 51000 (2015) 533 (2006) 17400 650 1340 1830 2010 8750 31900 36400 48800 50700
2020-07-06 11:45 3.03 2280 51000 (2015) 533 (2006) 17400 650 1340 1830 2010 8750 31900 36400 48800 50700
2020-07-06 10:45 3.03 2280 51000 (2015) 533 (2006) 17400 650 1340 1830 2010 8750 31900 36400 48800 50700
2020-07-06 09:45 3.04 2300 51000 (2015) 533 (2006) 17400 650 1340 1830 2010 8750 31900 36400 48800 50700
2020-07-06 08:45 3.04 2300 51000 (2015) 533 (2006) 17400 650 1340 1830 2010 8750 31900 36400 48800 50700
2020-07-06 07:45 3.05 2320 51000 (2015) 533 (2006) 17400 650 1340 1830 2010 8750 31900 36400 48800 50700
2020-07-06 06:45 3.05 2320 51000 (2015) 533 (2006) 17400 650 1340 1830 2010 8750 31900 36400 48800 50700
2020-07-06 05:45 3.06 2340 51000 (2015) 533 (2006) 17400 650 1340 1830 2010 8750 31900 36400 48800 50700
2020-07-06 04:45 3.07 2360 51000 (2015) 533 (2006) 17400 650 1340 1830 2010 8750 31900 36400 48800 50700
2020-07-06 03:45 3.09 2400 51000 (2015) 533 (2006) 17400 650 1340 1830 2010 8750 31900 36400 48800 50700
2020-07-06 02:45 3.10 2420 51000 (2015) 533 (2006) 17400 650 1340 1830 2010 8750 31900 36400 48800 50700
2020-07-06 01:45 3.12 2460 51000 (2015) 533 (2006) 17400 650 1340 1830 2010 8750 31900 36400 48800 50700
2020-07-06 00:45 3.14 2500 51000 (2015) 533 (2006) 17400 650 1340 1830 2010 8750 31900 36400 48800 50700

A total of 188 rows are displayed for years 1997 through 2019.